sensor_id;sensor_type;location;lat;lon;timestamp;pressure;altitude;pressure_sealevel;temperature;humidity
20009;BME280;10165;42.662;23.260;2024-01-30T00:01:03;96021.03;;;2.97;49.02
20009;BME280;10165;42.662;23.260;2024-01-30T00:03:29;96020.53;;;3.00;49.18
20009;BME280;10165;42.662;23.260;2024-01-30T00:05:56;96020.94;;;2.86;49.38
20009;BME280;10165;42.662;23.260;2024-01-30T00:08:26;96024.25;;;2.99;49.42
20009;BME280;10165;42.662;23.260;2024-01-30T00:10:53;96031.47;;;2.60;49.66
20009;BME280;10165;42.662;23.260;2024-01-30T00:13:19;96037.03;;;1.98;50.99
20009;BME280;10165;42.662;23.260;2024-01-30T00:15:46;96025.28;;;2.98;49.36
20009;BME280;10165;42.662;23.260;2024-01-30T00:18:20;96024.56;;;3.07;48.79
20009;BME280;10165;42.662;23.260;2024-01-30T00:20:48;96029.69;;;2.92;49.04
20009;BME280;10165;42.662;23.260;2024-01-30T00:23:14;96030.25;;;2.94;48.80
20009;BME280;10165;42.662;23.260;2024-01-30T00:25:41;96036.41;;;2.13;49.88
20009;BME280;10165;42.662;23.260;2024-01-30T00:28:08;96033.06;;;2.17;50.29
20009;BME280;10165;42.662;23.260;2024-01-30T00:30:35;96027.94;;;2.49;49.69
20009;BME280;10165;42.662;23.260;2024-01-30T00:33:01;96033.56;;;2.14;50.29
20009;BME280;10165;42.662;23.260;2024-01-30T00:35:28;96028.88;;;2.65;49.55
20009;BME280;10165;42.662;23.260;2024-01-30T00:37:55;96016.31;;;2.99;49.27
20009;BME280;10165;42.662;23.260;2024-01-30T00:40:22;96022.75;;;3.40;48.70
20009;BME280;10165;42.662;23.260;2024-01-30T00:42:49;96023.44;;;3.30;48.48
20009;BME280;10165;42.662;23.260;2024-01-30T00:45:16;96025.63;;;3.38;48.20
20009;BME280;10165;42.662;23.260;2024-01-30T00:47:43;96020.81;;;3.62;47.26
20009;BME280;10165;42.662;23.260;2024-01-30T00:50:11;96018.22;;;3.67;47.71
20009;BME280;10165;42.662;23.260;2024-01-30T00:52:37;96022.47;;;3.73;47.83
20009;BME280;10165;42.662;23.260;2024-01-30T00:55:05;96011.09;;;3.72;47.96
20009;BME280;10165;42.662;23.260;2024-01-30T00:57:32;96019.41;;;3.17;47.97
20009;BME280;10165;42.662;23.260;2024-01-30T00:59:59;96016.91;;;3.06;48.51
20009;BME280;10165;42.662;23.260;2024-01-30T01:02:26;96024.06;;;2.57;49.75
20009;BME280;10165;42.662;23.260;2024-01-30T01:04:52;96019.72;;;3.26;49.30
20009;BME280;10165;42.662;23.260;2024-01-30T01:07:19;96019.22;;;3.61;48.52
20009;BME280;10165;42.662;23.260;2024-01-30T01:09:46;96017.69;;;3.33;48.13
20009;BME280;10165;42.662;23.260;2024-01-30T01:12:13;96011.09;;;3.72;47.98
20009;BME280;10165;42.662;23.260;2024-01-30T01:14:40;96014.31;;;3.74;48.16
20009;BME280;10165;42.662;23.260;2024-01-30T01:17:06;96014.19;;;3.27;48.18
20009;BME280;10165;42.662;23.260;2024-01-30T01:19:33;96022.47;;;3.36;48.33
20009;BME280;10165;42.662;23.260;2024-01-30T01:22:00;96016.78;;;3.22;48.82
20009;BME280;10165;42.662;23.260;2024-01-30T01:24:27;96012.44;;;3.38;49.08
20009;BME280;10165;42.662;23.260;2024-01-30T01:26:54;96010.75;;;3.59;48.24
20009;BME280;10165;42.662;23.260;2024-01-30T01:29:21;96015.75;;;2.70;49.31
20009;BME280;10165;42.662;23.260;2024-01-30T01:31:55;96021.97;;;2.59;50.09
20009;BME280;10165;42.662;23.260;2024-01-30T01:34:23;96018.59;;;2.20;50.66
20009;BME280;10165;42.662;23.260;2024-01-30T01:36:55;96019.13;;;2.65;50.41
20009;BME280;10165;42.662;23.260;2024-01-30T01:39:22;96021.59;;;2.50;50.24
20009;BME280;10165;42.662;23.260;2024-01-30T01:41:50;96016.00;;;2.03;51.04
20009;BME280;10165;42.662;23.260;2024-01-30T01:44:17;96023.84;;;2.20;51.07
20009;BME280;10165;42.662;23.260;2024-01-30T01:46:45;96016.63;;;2.32;50.23
20009;BME280;10165;42.662;23.260;2024-01-30T01:49:12;96017.63;;;2.26;49.93
20009;BME280;10165;42.662;23.260;2024-01-30T01:51:39;96017.78;;;2.19;50.38
20009;BME280;10165;42.662;23.260;2024-01-30T01:54:08;96013.25;;;2.58;49.95
20009;BME280;10165;42.662;23.260;2024-01-30T01:56:35;96015.53;;;2.28;50.26
20009;BME280;10165;42.662;23.260;2024-01-30T01:59:06;96019.09;;;2.60;49.53
20009;BME280;10165;42.662;23.260;2024-01-30T02:01:37;96019.47;;;2.74;49.01
20009;BME280;10165;42.662;23.260;2024-01-30T02:04:06;96025.94;;;2.39;49.36
20009;BME280;10165;42.662;23.260;2024-01-30T02:06:34;96023.25;;;1.58;51.36
20009;BME280;10165;42.662;23.260;2024-01-30T02:09:01;96027.09;;;2.05;51.34
20009;BME280;10165;42.662;23.260;2024-01-30T02:11:28;96031.09;;;2.51;50.23
20009;BME280;10165;42.662;23.260;2024-01-30T02:13:55;96038.06;;;2.84;49.29
20009;BME280;10165;42.662;23.260;2024-01-30T02:16:22;96031.00;;;2.41;50.34
20009;BME280;10165;42.662;23.260;2024-01-30T02:18:49;96028.47;;;2.51;50.36
20009;BME280;10165;42.662;23.260;2024-01-30T02:21:16;96026.38;;;2.75;50.01
20009;BME280;10165;42.662;23.260;2024-01-30T02:23:44;96022.34;;;2.72;49.53
20009;BME280;10165;42.662;23.260;2024-01-30T02:26:18;96018.34;;;2.92;49.49
20009;BME280;10165;42.662;23.260;2024-01-30T02:28:49;96018.59;;;2.63;50.01
20009;BME280;10165;42.662;23.260;2024-01-30T02:31:16;96013.53;;;2.83;49.48
20009;BME280;10165;42.662;23.260;2024-01-30T02:33:43;96020.19;;;2.64;49.57
20009;BME280;10165;42.662;23.260;2024-01-30T02:36:10;96010.81;;;2.52;49.32
20009;BME280;10165;42.662;23.260;2024-01-30T02:38:37;96029.63;;;2.60;49.94
20009;BME280;10165;42.662;23.260;2024-01-30T02:41:03;96027.16;;;2.54;48.76
20009;BME280;10165;42.662;23.260;2024-01-30T02:43:30;96021.34;;;2.52;49.50
20009;BME280;10165;42.662;23.260;2024-01-30T02:45:57;96020.91;;;2.38;49.97
20009;BME280;10165;42.662;23.260;2024-01-30T02:48:24;96009.66;;;2.91;49.34
20009;BME280;10165;42.662;23.260;2024-01-30T02:50:51;96013.47;;;2.78;49.23
20009;BME280;10165;42.662;23.260;2024-01-30T02:53:18;96019.19;;;2.70;49.37
20009;BME280;10165;42.662;23.260;2024-01-30T02:55:45;96019.28;;;2.80;48.78
20009;BME280;10165;42.662;23.260;2024-01-30T02:58:11;96013.72;;;3.04;48.59
20009;BME280;10165;42.662;23.260;2024-01-30T03:00:38;96015.47;;;2.93;48.75
20009;BME280;10165;42.662;23.260;2024-01-30T03:03:05;96026.06;;;2.28;49.49
20009;BME280;10165;42.662;23.260;2024-01-30T03:05:42;96019.56;;;2.57;49.17
20009;BME280;10165;42.662;23.260;2024-01-30T03:08:09;96017.56;;;2.64;48.92
20009;BME280;10165;42.662;23.260;2024-01-30T03:10:36;95998.59;;;2.94;48.13
20009;BME280;10165;42.662;23.260;2024-01-30T03:13:03;96012.94;;;2.55;48.80
20009;BME280;10165;42.662;23.260;2024-01-30T03:15:29;96010.94;;;2.88;48.02
20009;BME280;10165;42.662;23.260;2024-01-30T03:17:56;96020.19;;;2.42;48.42
20009;BME280;10165;42.662;23.260;2024-01-30T03:20:23;96010.59;;;2.15;48.93
20009;BME280;10165;42.662;23.260;2024-01-30T03:22:50;96010.97;;;2.23;49.47
20009;BME280;10165;42.662;23.260;2024-01-30T03:25:17;96024.75;;;1.54;50.49
20009;BME280;10165;42.662;23.260;2024-01-30T03:27:44;96012.63;;;1.69;50.09
20009;BME280;10165;42.662;23.260;2024-01-30T03:30:11;96010.06;;;2.34;49.11
20009;BME280;10165;42.662;23.260;2024-01-30T03:32:37;96010.06;;;2.34;48.93
20009;BME280;10165;42.662;23.260;2024-01-30T03:35:09;96008.63;;;1.83;49.60
20009;BME280;10165;42.662;23.260;2024-01-30T03:37:36;95997.69;;;1.91;49.79
20009;BME280;10165;42.662;23.260;2024-01-30T03:40:03;96002.09;;;2.08;49.51
20009;BME280;10165;42.662;23.260;2024-01-30T03:42:30;96004.25;;;2.32;49.08
20009;BME280;10165;42.662;23.260;2024-01-30T03:44:57;96009.66;;;1.82;49.84
20009;BME280;10165;42.662;23.260;2024-01-30T03:47:23;96009.44;;;1.51;50.22
20009;BME280;10165;42.662;23.260;2024-01-30T03:49:50;96007.31;;;1.48;50.21
20009;BME280;10165;42.662;23.260;2024-01-30T03:52:17;96006.53;;;1.85;50.24
20009;BME280;10165;42.662;23.260;2024-01-30T03:54:44;96000.56;;;2.12;48.78
20009;BME280;10165;42.662;23.260;2024-01-30T03:57:11;95994.28;;;1.96;48.97
20009;BME280;10165;42.662;23.260;2024-01-30T03:59:37;95995.91;;;2.19;48.65
20009;BME280;10165;42.662;23.260;2024-01-30T04:02:04;96001.22;;;1.30;49.37
20009;BME280;10165;42.662;23.260;2024-01-30T04:04:31;95993.03;;;2.20;48.68
20009;BME280;10165;42.662;23.260;2024-01-30T04:06:58;95991.53;;;1.86;48.65
20009;BME280;10165;42.662;23.260;2024-01-30T04:09:25;95990.66;;;2.67;47.50
20009;BME280;10165;42.662;23.260;2024-01-30T04:11:53;95990.03;;;2.82;46.63
20009;BME280;10165;42.662;23.260;2024-01-30T04:14:20;95992.06;;;2.53;47.23
20009;BME280;10165;42.662;23.260;2024-01-30T04:16:46;95999.53;;;1.58;48.46
20009;BME280;10165;42.662;23.260;2024-01-30T04:19:18;95988.38;;;2.27;47.96
20009;BME280;10165;42.662;23.260;2024-01-30T04:21:45;95996.19;;;1.79;48.81
20009;BME280;10165;42.662;23.260;2024-01-30T04:24:11;95994.38;;;2.45;47.52
20009;BME280;10165;42.662;23.260;2024-01-30T04:26:38;95993.16;;;2.09;48.42
20009;BME280;10165;42.662;23.260;2024-01-30T04:29:05;95987.09;;;1.70;49.34
20009;BME280;10165;42.662;23.260;2024-01-30T04:31:32;96001.81;;;1.49;49.37
20009;BME280;10165;42.662;23.260;2024-01-30T04:33:59;96000.84;;;2.15;48.33
20009;BME280;10165;42.662;23.260;2024-01-30T04:36:25;95994.13;;;2.24;48.04
20009;BME280;10165;42.662;23.260;2024-01-30T04:39:06;96004.38;;;1.99;49.25
20009;BME280;10165;42.662;23.260;2024-01-30T04:41:33;96006.31;;;2.09;48.44
20009;BME280;10165;42.662;23.260;2024-01-30T04:44:00;95998.66;;;2.51;47.48
20009;BME280;10165;42.662;23.260;2024-01-30T04:46:27;96008.88;;;2.04;48.41
20009;BME280;10165;42.662;23.260;2024-01-30T04:48:54;96008.09;;;2.47;47.92
20009;BME280;10165;42.662;23.260;2024-01-30T04:51:21;96012.66;;;2.29;47.93
20009;BME280;10165;42.662;23.260;2024-01-30T04:53:48;96024.28;;;1.73;49.03
20009;BME280;10165;42.662;23.260;2024-01-30T04:56:14;96028.31;;;2.19;48.65
20009;BME280;10165;42.662;23.260;2024-01-30T04:58:41;96017.28;;;2.22;47.63
20009;BME280;10165;42.662;23.260;2024-01-30T05:01:08;96024.69;;;2.04;48.20
20009;BME280;10165;42.662;23.260;2024-01-30T05:03:35;96028.50;;;1.91;48.47
20009;BME280;10165;42.662;23.260;2024-01-30T05:06:02;96032.50;;;2.15;48.00
20009;BME280;10165;42.662;23.260;2024-01-30T05:08:29;96027.59;;;1.85;48.60
20009;BME280;10165;42.662;23.260;2024-01-30T05:10:55;96027.25;;;2.37;47.21
20009;BME280;10165;42.662;23.260;2024-01-30T05:13:22;96033.06;;;1.62;48.89
20009;BME280;10165;42.662;23.260;2024-01-30T05:15:49;96032.13;;;0.62;51.88
20009;BME280;10165;42.662;23.260;2024-01-30T05:18:21;96030.91;;;0.81;51.34
20009;BME280;10165;42.662;23.260;2024-01-30T05:20:50;96028.53;;;1.96;49.31
20009;BME280;10165;42.662;23.260;2024-01-30T05:23:16;96034.66;;;1.80;49.28
20009;BME280;10165;42.662;23.260;2024-01-30T05:25:43;96042.16;;;1.55;50.17
20009;BME280;10165;42.662;23.260;2024-01-30T05:28:10;96040.09;;;1.57;50.34
20009;BME280;10165;42.662;23.260;2024-01-30T05:30:36;96042.66;;;1.68;49.85
20009;BME280;10165;42.662;23.260;2024-01-30T05:33:03;96045.75;;;1.65;49.54
20009;BME280;10165;42.662;23.260;2024-01-30T05:35:30;96042.56;;;1.63;50.02
20009;BME280;10165;42.662;23.260;2024-01-30T05:37:57;96039.13;;;1.63;49.67
20009;BME280;10165;42.662;23.260;2024-01-30T05:40:24;96040.34;;;2.10;48.89
20009;BME280;10165;42.662;23.260;2024-01-30T05:42:51;96039.25;;;2.50;48.51
20009;BME280;10165;42.662;23.260;2024-01-30T05:45:18;96038.53;;;2.32;48.53
20009;BME280;10165;42.662;23.260;2024-01-30T05:47:44;96032.69;;;2.09;48.73
20009;BME280;10165;42.662;23.260;2024-01-30T05:50:11;96034.16;;;1.83;49.05
20009;BME280;10165;42.662;23.260;2024-01-30T05:52:38;96037.31;;;2.18;48.68
20009;BME280;10165;42.662;23.260;2024-01-30T05:55:04;96037.91;;;2.25;48.51
20009;BME280;10165;42.662;23.260;2024-01-30T05:57:32;96027.81;;;1.29;49.82
20009;BME280;10165;42.662;23.260;2024-01-30T05:59:59;96031.22;;;1.79;48.98
20009;BME280;10165;42.662;23.260;2024-01-30T06:02:25;96034.59;;;2.13;47.94
20009;BME280;10165;42.662;23.260;2024-01-30T06:05:09;96030.09;;;1.75;48.61
20009;BME280;10165;42.662;23.260;2024-01-30T06:07:36;96028.22;;;2.09;48.70
20009;BME280;10165;42.662;23.260;2024-01-30T06:10:17;96035.69;;;2.17;48.39
20009;BME280;10165;42.662;23.260;2024-01-30T06:12:44;96027.44;;;2.52;47.16
20009;BME280;10165;42.662;23.260;2024-01-30T06:15:20;96037.53;;;1.62;49.17
20009;BME280;10165;42.662;23.260;2024-01-30T06:18:07;96033.88;;;1.63;48.65
20009;BME280;10165;42.662;23.260;2024-01-30T06:20:34;96038.66;;;1.66;49.04
20009;BME280;10165;42.662;23.260;2024-01-30T06:23:01;96039.44;;;1.66;48.44
20009;BME280;10165;42.662;23.260;2024-01-30T06:25:27;96033.41;;;1.49;49.11
20009;BME280;10165;42.662;23.260;2024-01-30T06:28:08;96040.88;;;1.07;50.65
20009;BME280;10165;42.662;23.260;2024-01-30T06:30:35;96040.97;;;1.29;49.36
20009;BME280;10165;42.662;23.260;2024-01-30T06:33:12;96043.34;;;1.30;50.16
20009;BME280;10165;42.662;23.260;2024-01-30T06:35:40;96043.78;;;1.56;49.14
20009;BME280;10165;42.662;23.260;2024-01-30T06:38:12;96042.78;;;1.28;49.73
20009;BME280;10165;42.662;23.260;2024-01-30T06:40:39;96043.19;;;1.54;50.15
20009;BME280;10165;42.662;23.260;2024-01-30T06:43:06;96047.22;;;0.94;50.49
20009;BME280;10165;42.662;23.260;2024-01-30T06:45:34;96050.56;;;0.90;50.89
20009;BME280;10165;42.662;23.260;2024-01-30T06:48:01;96048.44;;;1.20;50.44
20009;BME280;10165;42.662;23.260;2024-01-30T06:50:28;96043.91;;;1.99;48.74
20009;BME280;10165;42.662;23.260;2024-01-30T06:52:55;96048.09;;;2.00;48.31
20009;BME280;10165;42.662;23.260;2024-01-30T06:55:21;96041.22;;;1.61;49.42
20009;BME280;10165;42.662;23.260;2024-01-30T06:58:04;96051.22;;;1.97;48.67
20009;BME280;10165;42.662;23.260;2024-01-30T07:00:31;96044.75;;;1.88;48.23
20009;BME280;10165;42.662;23.260;2024-01-30T07:02:58;96047.41;;;1.21;49.23
20009;BME280;10165;42.662;23.260;2024-01-30T07:05:24;96055.88;;;1.73;48.94
20009;BME280;10165;42.662;23.260;2024-01-30T07:07:51;96050.06;;;1.71;48.57
20009;BME280;10165;42.662;23.260;2024-01-30T07:10:18;96050.44;;;1.13;48.77
20009;BME280;10165;42.662;23.260;2024-01-30T07:12:45;96051.66;;;1.56;48.33
20009;BME280;10165;42.662;23.260;2024-01-30T07:15:12;96057.56;;;1.63;47.92
20009;BME280;10165;42.662;23.260;2024-01-30T07:17:41;96052.28;;;1.46;48.56
20009;BME280;10165;42.662;23.260;2024-01-30T07:20:08;96051.00;;;1.32;48.16
20009;BME280;10165;42.662;23.260;2024-01-30T07:22:44;96055.66;;;1.58;47.90
20009;BME280;10165;42.662;23.260;2024-01-30T07:25:11;96064.00;;;2.05;46.32
20009;BME280;10165;42.662;23.260;2024-01-30T07:27:38;96061.81;;;1.64;47.27
20009;BME280;10165;42.662;23.260;2024-01-30T07:30:05;96054.75;;;2.24;46.34
20009;BME280;10165;42.662;23.260;2024-01-30T07:32:32;96058.91;;;1.82;47.14
20009;BME280;10165;42.662;23.260;2024-01-30T07:34:59;96051.50;;;2.82;45.56
20009;BME280;10165;42.662;23.260;2024-01-30T07:37:34;96055.81;;;1.35;46.45
20009;BME280;10165;42.662;23.260;2024-01-30T07:40:03;96060.75;;;1.81;46.55
20009;BME280;10165;42.662;23.260;2024-01-30T07:42:30;96061.06;;;1.35;46.50
20009;BME280;10165;42.662;23.260;2024-01-30T07:44:57;96054.78;;;2.08;45.89
20009;BME280;10165;42.662;23.260;2024-01-30T07:47:24;96054.56;;;2.09;45.01
20009;BME280;10165;42.662;23.260;2024-01-30T07:49:51;96053.34;;;1.62;45.84
20009;BME280;10165;42.662;23.260;2024-01-30T07:52:28;96054.88;;;1.41;46.31
20009;BME280;10165;42.662;23.260;2024-01-30T07:54:55;96053.53;;;2.10;45.60
20009;BME280;10165;42.662;23.260;2024-01-30T07:57:22;96047.78;;;2.35;44.84
20009;BME280;10165;42.662;23.260;2024-01-30T07:59:48;96049.63;;;2.56;44.13
20009;BME280;10165;42.662;23.260;2024-01-30T08:02:15;96042.69;;;2.28;43.99
20009;BME280;10165;42.662;23.260;2024-01-30T08:04:42;96049.09;;;2.81;44.15
20009;BME280;10165;42.662;23.260;2024-01-30T08:07:09;96042.88;;;2.22;44.40
20009;BME280;10165;42.662;23.260;2024-01-30T08:09:36;96037.75;;;1.77;45.35
20009;BME280;10165;42.662;23.260;2024-01-30T08:12:03;96041.50;;;1.81;45.61
20009;BME280;10165;42.662;23.260;2024-01-30T08:14:35;96051.09;;;1.87;45.60
20009;BME280;10165;42.662;23.260;2024-01-30T08:17:01;96041.00;;;2.22;44.99
20009;BME280;10165;42.662;23.260;2024-01-30T08:19:28;96030.22;;;2.02;45.38
20009;BME280;10165;42.662;23.260;2024-01-30T08:22:03;96039.00;;;2.51;44.33
20009;BME280;10165;42.662;23.260;2024-01-30T08:24:30;96038.69;;;3.18;43.00
20009;BME280;10165;42.662;23.260;2024-01-30T08:27:12;96042.31;;;2.20;44.33
20009;BME280;10165;42.662;23.260;2024-01-30T08:29:39;96040.84;;;2.51;44.04
20009;BME280;10165;42.662;23.260;2024-01-30T08:32:06;96046.94;;;1.91;44.99
20009;BME280;10165;42.662;23.260;2024-01-30T08:34:33;96053.25;;;2.28;43.75
20009;BME280;10165;42.662;23.260;2024-01-30T08:37:12;96037.44;;;2.99;43.04
20009;BME280;10165;42.662;23.260;2024-01-30T08:39:43;96056.97;;;2.32;43.89
20009;BME280;10165;42.662;23.260;2024-01-30T08:42:12;96058.81;;;2.10;44.56
20009;BME280;10165;42.662;23.260;2024-01-30T08:44:39;96047.97;;;2.28;44.84
20009;BME280;10165;42.662;23.260;2024-01-30T08:47:05;96049.94;;;2.60;44.05
20009;BME280;10165;42.662;23.260;2024-01-30T08:49:43;96055.34;;;2.48;44.08
20009;BME280;10165;42.662;23.260;2024-01-30T08:52:24;96054.91;;;3.05;43.93
20009;BME280;10165;42.662;23.260;2024-01-30T08:54:51;96049.13;;;3.34;42.47
20009;BME280;10165;42.662;23.260;2024-01-30T08:57:31;96055.63;;;2.73;43.17
20009;BME280;10165;42.662;23.260;2024-01-30T09:00:08;96059.19;;;3.69;42.67
20009;BME280;10165;42.662;23.260;2024-01-30T09:02:36;96070.19;;;3.56;42.06
20009;BME280;10165;42.662;23.260;2024-01-30T09:05:32;96064.06;;;2.97;43.60
20009;BME280;10165;42.662;23.260;2024-01-30T09:08:02;96060.06;;;3.48;41.97
20009;BME280;10165;42.662;23.260;2024-01-30T09:10:37;96060.56;;;3.18;43.47
20009;BME280;10165;42.662;23.260;2024-01-30T09:13:04;96060.84;;;2.90;43.34
20009;BME280;10165;42.662;23.260;2024-01-30T09:15:30;96057.16;;;2.91;43.57
20009;BME280;10165;42.662;23.260;2024-01-30T09:18:07;96065.31;;;2.46;44.57
20009;BME280;10165;42.662;23.260;2024-01-30T09:20:48;96060.72;;;2.36;46.12
20009;BME280;10165;42.662;23.260;2024-01-30T09:23:28;96056.56;;;2.40;46.35
20009;BME280;10165;42.662;23.260;2024-01-30T09:26:07;96054.53;;;2.48;46.71
20009;BME280;10165;42.662;23.260;2024-01-30T09:28:34;96048.09;;;2.38;47.14
20009;BME280;10165;42.662;23.260;2024-01-30T09:31:02;96042.44;;;2.73;46.79
20009;BME280;10165;42.662;23.260;2024-01-30T09:33:29;96043.41;;;2.89;46.65
20009;BME280;10165;42.662;23.260;2024-01-30T09:35:56;96037.13;;;3.22;46.23
20009;BME280;10165;42.662;23.260;2024-01-30T09:38:23;96035.19;;;3.12;46.33
20009;BME280;10165;42.662;23.260;2024-01-30T09:40:57;96042.78;;;2.33;47.10
20009;BME280;10165;42.662;23.260;2024-01-30T09:43:33;96045.16;;;2.57;46.90
20009;BME280;10165;42.662;23.260;2024-01-30T09:46:02;96038.13;;;2.89;45.64
20009;BME280;10165;42.662;23.260;2024-01-30T09:48:30;96033.41;;;2.69;46.28
20009;BME280;10165;42.662;23.260;2024-01-30T09:50:57;96031.44;;;3.35;45.43
20009;BME280;10165;42.662;23.260;2024-01-30T09:53:25;96041.34;;;2.48;46.71
20009;BME280;10165;42.662;23.260;2024-01-30T09:56:02;96034.25;;;2.48;46.66
20009;BME280;10165;42.662;23.260;2024-01-30T09:58:29;96027.56;;;3.16;45.35
20009;BME280;10165;42.662;23.260;2024-01-30T10:00:56;96041.22;;;2.59;45.85
20009;BME280;10165;42.662;23.260;2024-01-30T10:03:25;96040.16;;;2.17;46.62
20009;BME280;10165;42.662;23.260;2024-01-30T10:06:01;96032.03;;;2.40;47.00
20009;BME280;10165;42.662;23.260;2024-01-30T10:08:29;96032.16;;;2.72;45.76
20009;BME280;10165;42.662;23.260;2024-01-30T10:10:57;96034.22;;;2.97;46.02
20009;BME280;10165;42.662;23.260;2024-01-30T10:13:25;96013.69;;;2.28;46.47
20009;BME280;10165;42.662;23.260;2024-01-30T10:16:01;96016.16;;;3.10;46.03
20009;BME280;10165;42.662;23.260;2024-01-30T10:18:29;96016.97;;;3.43;45.07
20009;BME280;10165;42.662;23.260;2024-01-30T10:20:56;96026.13;;;2.55;46.37
20009;BME280;10165;42.662;23.260;2024-01-30T10:23:23;96022.25;;;2.62;46.57
20009;BME280;10165;42.662;23.260;2024-01-30T10:25:53;96020.25;;;2.26;47.46
20009;BME280;10165;42.662;23.260;2024-01-30T10:28:19;96021.22;;;2.63;46.38
20009;BME280;10165;42.662;23.260;2024-01-30T10:30:57;96029.94;;;2.42;46.44
20009;BME280;10165;42.662;23.260;2024-01-30T10:33:28;96029.13;;;2.41;46.97
20009;BME280;10165;42.662;23.260;2024-01-30T10:36:01;96018.41;;;2.97;45.75
20009;BME280;10165;42.662;23.260;2024-01-30T10:38:29;96024.22;;;3.25;45.15
20009;BME280;10165;42.662;23.260;2024-01-30T10:40:58;96022.63;;;3.56;44.12
20009;BME280;10165;42.662;23.260;2024-01-30T10:43:33;96014.78;;;3.34;45.01
20009;BME280;10165;42.662;23.260;2024-01-30T10:46:18;96012.69;;;3.36;44.95
20009;BME280;10165;42.662;23.260;2024-01-30T10:49:02;96015.53;;;3.62;44.60
20009;BME280;10165;42.662;23.260;2024-01-30T10:51:31;96012.56;;;2.68;45.39
20009;BME280;10165;42.662;23.260;2024-01-30T10:54:13;96007.16;;;3.06;45.56
20009;BME280;10165;42.662;23.260;2024-01-30T10:56:42;96003.56;;;3.17;45.32
20009;BME280;10165;42.662;23.260;2024-01-30T10:59:09;95991.47;;;3.26;44.91
20009;BME280;10165;42.662;23.260;2024-01-30T11:01:37;95993.81;;;2.91;45.55
20009;BME280;10165;42.662;23.260;2024-01-30T11:04:10;95988.91;;;2.78;46.13
20009;BME280;10165;42.662;23.260;2024-01-30T11:06:43;95992.72;;;2.60;46.08
20009;BME280;10165;42.662;23.260;2024-01-30T11:09:11;95995.09;;;2.40;46.02
20009;BME280;10165;42.662;23.260;2024-01-30T11:11:55;95996.34;;;2.32;46.19
20009;BME280;10165;42.662;23.260;2024-01-30T11:14:30;95983.69;;;2.34;46.90
20009;BME280;10165;42.662;23.260;2024-01-30T11:16:59;95975.19;;;2.76;45.96
20009;BME280;10165;42.662;23.260;2024-01-30T11:19:27;95979.97;;;3.06;45.34
20009;BME280;10165;42.662;23.260;2024-01-30T11:21:57;95982.00;;;2.72;45.79
20009;BME280;10165;42.662;23.260;2024-01-30T11:24:24;95982.84;;;2.51;46.55
20009;BME280;10165;42.662;23.260;2024-01-30T11:26:57;95983.53;;;2.41;46.69
20009;BME280;10165;42.662;23.260;2024-01-30T11:29:26;95975.19;;;2.27;47.68
20009;BME280;10165;42.662;23.260;2024-01-30T11:31:54;95977.19;;;3.22;46.12
20009;BME280;10165;42.662;23.260;2024-01-30T11:34:21;95974.59;;;3.27;45.52
20009;BME280;10165;42.662;23.260;2024-01-30T11:36:59;95963.81;;;3.71;44.67
20009;BME280;10165;42.662;23.260;2024-01-30T11:39:32;95984.00;;;3.50;44.57
20009;BME280;10165;42.662;23.260;2024-01-30T11:41:59;95985.78;;;3.40;45.76
20009;BME280;10165;42.662;23.260;2024-01-30T11:44:26;95973.66;;;3.85;44.48
20009;BME280;10165;42.662;23.260;2024-01-30T11:46:57;95980.28;;;3.14;45.43
20009;BME280;10165;42.662;23.260;2024-01-30T11:49:24;95975.19;;;2.76;46.25
20009;BME280;10165;42.662;23.260;2024-01-30T11:52:01;95977.22;;;3.64;45.02
20009;BME280;10165;42.662;23.260;2024-01-30T11:54:28;95973.66;;;3.85;44.64
20009;BME280;10165;42.662;23.260;2024-01-30T11:56:54;95962.13;;;3.18;45.75
20009;BME280;10165;42.662;23.260;2024-01-30T11:59:21;95963.66;;;3.51;45.03
20009;BME280;10165;42.662;23.260;2024-01-30T12:01:48;95958.94;;;2.89;45.70
20009;BME280;10165;42.662;23.260;2024-01-30T12:04:15;95959.03;;;3.31;45.51
20009;BME280;10165;42.662;23.260;2024-01-30T12:06:45;95943.19;;;3.68;44.58
20009;BME280;10165;42.662;23.260;2024-01-30T12:09:22;95940.69;;;3.51;45.24
20009;BME280;10165;42.662;23.260;2024-01-30T12:11:49;95938.84;;;3.52;44.89
20009;BME280;10165;42.662;23.260;2024-01-30T12:14:26;95940.22;;;3.64;44.77
20009;BME280;10165;42.662;23.260;2024-01-30T12:16:53;95933.47;;;3.42;44.62
20009;BME280;10165;42.662;23.260;2024-01-30T12:19:26;95927.00;;;4.06;43.53
20009;BME280;10165;42.662;23.260;2024-01-30T12:21:59;95928.38;;;3.67;43.99
20009;BME280;10165;42.662;23.260;2024-01-30T12:24:29;95923.66;;;3.74;43.73
20009;BME280;10165;42.662;23.260;2024-01-30T12:27:17;95914.75;;;3.06;45.53
20009;BME280;10165;42.662;23.260;2024-01-30T12:29:44;95916.06;;;3.41;45.50
20009;BME280;10165;42.662;23.260;2024-01-30T12:32:15;95916.41;;;3.54;44.97
20009;BME280;10165;42.662;23.260;2024-01-30T12:34:43;95910.28;;;4.01;43.60
20009;BME280;10165;42.662;23.260;2024-01-30T12:37:30;95902.34;;;3.91;44.12
20009;BME280;10165;42.662;23.260;2024-01-30T12:39:57;95914.28;;;4.08;44.03
20009;BME280;10165;42.662;23.260;2024-01-30T12:42:26;95910.72;;;4.50;42.89
20009;BME280;10165;42.662;23.260;2024-01-30T12:45:07;95905.16;;;3.74;43.84
20009;BME280;10165;42.662;23.260;2024-01-30T12:47:34;95903.75;;;4.23;43.50
20009;BME280;10165;42.662;23.260;2024-01-30T12:50:01;95905.13;;;4.41;43.35
20009;BME280;10165;42.662;23.260;2024-01-30T12:52:28;95904.66;;;4.69;42.43
20009;BME280;10165;42.662;23.260;2024-01-30T12:54:55;95901.19;;;3.76;43.63
20009;BME280;10165;42.662;23.260;2024-01-30T12:57:22;95896.78;;;3.92;43.52
20009;BME280;10165;42.662;23.260;2024-01-30T12:59:58;95886.50;;;4.01;43.55
20009;BME280;10165;42.662;23.260;2024-01-30T13:02:25;95890.34;;;3.73;44.00
20009;BME280;10165;42.662;23.260;2024-01-30T13:04:54;95888.94;;;3.55;44.94
20009;BME280;10165;42.662;23.260;2024-01-30T13:07:21;95887.63;;;4.30;43.26
20009;BME280;10165;42.662;23.260;2024-01-30T13:09:48;95886.34;;;3.60;43.90